createdAt,value
2023-05-19T00:00:03.947Z,62.55
2023-05-19T00:02:41.790Z,62.73
2023-05-19T00:05:13.260Z,63.12
2023-05-19T00:07:43.188Z,63.11
2023-05-19T00:10:17.464Z,63.43
2023-05-19T00:12:47.668Z,63.51
2023-05-19T00:15:18.434Z,63.78
2023-05-19T00:17:48.989Z,63.72
2023-05-19T00:20:18.986Z,64.10
2023-05-19T00:22:48.853Z,64.27
2023-05-19T00:25:21.191Z,64.29
2023-05-19T00:27:50.944Z,64.61
2023-05-19T00:30:22.991Z,64.77
2023-05-19T00:32:52.852Z,64.82
2023-05-19T00:35:23.861Z,65.28
2023-05-19T00:37:53.592Z,65.24
2023-05-19T00:40:26.775Z,65.56
2023-05-19T00:42:56.473Z,65.81
2023-05-19T00:45:27.378Z,65.86
2023-05-19T00:47:57.181Z,66.24
2023-05-19T00:50:27.547Z,66.50
2023-05-19T00:52:57.377Z,66.77
2023-05-19T00:55:31.332Z,67.02
2023-05-19T00:58:01.898Z,67.24
2023-05-19T01:00:33.000Z,67.38
2023-05-19T01:03:11.447Z,67.49
2023-05-19T01:05:44.878Z,67.63
2023-05-19T01:08:14.910Z,67.71
2023-05-19T01:10:47.237Z,67.97
2023-05-19T01:13:17.469Z,68.10
2023-05-19T01:16:01.335Z,68.54
2023-05-19T01:18:48.406Z,68.57
2023-05-19T01:21:46.746Z,68.77
2023-05-19T01:24:37.502Z,68.79
2023-05-19T01:27:27.554Z,68.97
2023-05-19T01:30:27.469Z,69.36
2023-05-19T01:33:00.743Z,69.18
2023-05-19T01:35:33.073Z,69.51
2023-05-19T01:38:04.077Z,69.66
2023-05-19T01:40:34.253Z,69.92
2023-05-19T01:43:05.145Z,70.06
2023-05-19T01:45:38.026Z,70.32
2023-05-19T01:48:10.875Z,70.46
2023-05-19T01:50:42.463Z,70.81
2023-05-19T01:53:13.001Z,70.65
2023-05-19T01:55:48.403Z,70.92
2023-05-19T01:58:24.538Z,71.27
2023-05-19T02:01:02.263Z,71.48
2023-05-19T02:03:44.182Z,71.66
2023-05-19T02:06:24.293Z,71.78
2023-05-19T02:09:01.333Z,71.94
2023-05-19T02:11:39.257Z,72.05
2023-05-19T02:14:12.775Z,72.13
2023-05-19T02:16:48.308Z,72.19
2023-05-19T02:19:26.297Z,72.34
2023-05-19T02:21:58.220Z,72.51
2023-05-19T02:24:28.481Z,72.84
2023-05-19T02:26:58.263Z,72.65
2023-05-19T02:29:28.098Z,72.89
2023-05-19T02:32:01.530Z,73.38
2023-05-19T02:34:31.651Z,73.22
2023-05-19T02:37:01.467Z,73.36
2023-05-19T02:39:35.313Z,73.52
2023-05-19T02:42:05.185Z,73.54
2023-05-19T02:44:34.938Z,73.64
2023-05-19T02:47:07.787Z,73.85
2023-05-19T02:49:38.052Z,73.98
2023-05-19T02:52:08.817Z,74.14
2023-05-19T02:54:38.660Z,74.37
2023-05-19T02:57:08.681Z,74.24
2023-05-19T02:59:38.433Z,74.41
2023-05-19T03:02:11.554Z,74.43
2023-05-19T03:04:42.213Z,74.56
2023-05-19T03:07:13.588Z,74.55
2023-05-19T03:09:43.434Z,74.67
2023-05-19T03:12:13.147Z,74.99
2023-05-19T03:14:44.437Z,74.83
2023-05-19T03:17:16.850Z,75.26
2023-05-19T03:19:46.637Z,75.39
2023-05-19T03:22:16.377Z,75.15
2023-05-19T03:24:46.094Z,75.54
2023-05-19T03:27:16.715Z,75.39
2023-05-19T03:29:46.488Z,75.23
2023-05-19T03:32:20.027Z,75.07
2023-05-19T03:34:49.965Z,74.62
2023-05-19T03:37:19.910Z,74.44
2023-05-19T03:39:49.658Z,74.04
2023-05-19T03:42:19.871Z,74.01
2023-05-19T03:44:49.657Z,73.87
2023-05-19T03:47:22.572Z,73.59
2023-05-19T03:49:52.283Z,73.41
2023-05-19T03:52:46.714Z,73.13
2023-05-19T03:55:26.561Z,72.92
2023-05-19T03:57:56.304Z,72.54
2023-05-19T04:00:26.076Z,72.43
2023-05-19T04:02:58.609Z,72.20
2023-05-19T04:05:28.377Z,71.76
2023-05-19T04:07:58.131Z,71.57
2023-05-19T04:10:27.894Z,71.40
2023-05-19T04:12:58.159Z,71.17
2023-05-19T04:15:29.485Z,70.69
2023-05-19T04:18:01.909Z,70.37
2023-05-19T04:20:31.805Z,70.34
2023-05-19T04:23:01.804Z,70.09
2023-05-19T04:25:31.596Z,69.91
2023-05-19T04:28:01.436Z,69.64
2023-05-19T04:30:31.487Z,69.30
2023-05-19T04:33:05.004Z,69.08
2023-05-19T04:35:35.063Z,69.19
2023-05-19T04:38:05.236Z,69.00
2023-05-19T04:40:37.289Z,68.80
2023-05-19T04:43:07.494Z,68.61
2023-05-19T04:45:37.867Z,68.58
2023-05-19T04:48:12.375Z,68.26
2023-05-19T04:50:48.959Z,68.07
2023-05-19T04:53:18.877Z,68.01
2023-05-19T04:55:48.664Z,67.69
2023-05-19T04:58:19.942Z,67.52
2023-05-19T05:00:50.892Z,67.25
2023-05-19T05:03:23.340Z,67.20
2023-05-19T05:05:54.498Z,67.00
2023-05-19T05:08:24.701Z,66.61
2023-05-19T05:10:57.359Z,66.41
2023-05-19T05:13:27.999Z,66.24
2023-05-19T05:15:58.720Z,65.83
2023-05-19T05:18:32.085Z,65.68
2023-05-19T05:21:02.514Z,65.36
2023-05-19T05:23:33.099Z,65.20
2023-05-19T05:26:03.266Z,64.91
2023-05-19T05:28:33.048Z,64.71
2023-05-19T05:31:02.900Z,64.53
2023-05-19T05:33:36.916Z,64.41
2023-05-19T05:36:07.552Z,64.28
2023-05-19T05:38:37.488Z,64.11
2023-05-19T05:41:07.580Z,63.95
2023-05-19T05:43:38.268Z,63.66
2023-05-19T05:46:08.445Z,63.50
2023-05-19T05:48:42.849Z,62.93
2023-05-19T05:51:13.924Z,62.46
2023-05-19T05:53:45.786Z,62.25
2023-05-19T05:56:18.003Z,61.96
2023-05-19T05:58:52.913Z,61.73
2023-05-19T06:01:24.172Z,61.16
2023-05-19T06:03:57.105Z,60.66
2023-05-19T06:06:27.466Z,60.17
2023-05-19T06:08:57.679Z,59.38
2023-05-19T06:11:28.933Z,58.40
2023-05-19T06:14:00.951Z,57.59
2023-05-19T06:16:48.251Z,56.04
2023-05-19T06:19:22.851Z,54.26
2023-05-19T06:21:52.656Z,52.03
2023-05-19T06:24:22.442Z,49.18
2023-05-19T06:26:52.280Z,48.20
2023-05-19T06:29:22.053Z,46.23
2023-05-19T06:31:53.472Z,45.42
2023-05-19T06:34:27.054Z,43.58
2023-05-19T06:36:56.914Z,42.49
2023-05-19T06:39:27.692Z,40.83
2023-05-19T06:41:57.669Z,39.39
2023-05-19T06:44:47.385Z,39.74
2023-05-19T06:47:18.930Z,38.63
2023-05-19T06:49:55.571Z,37.49
2023-05-19T06:52:28.768Z,37.08
2023-05-19T06:54:59.819Z,35.64
2023-05-19T06:57:29.673Z,33.96
2023-05-19T06:59:59.940Z,34.63
2023-05-19T07:02:29.962Z,33.79
2023-05-19T07:05:03.357Z,33.16
2023-05-19T07:07:33.132Z,33.78
2023-05-19T07:10:03.583Z,33.07
2023-05-19T07:12:34.984Z,32.72
2023-05-19T07:15:04.768Z,32.71
2023-05-19T07:17:35.035Z,32.19
2023-05-19T07:20:10.216Z,31.67
2023-05-19T07:22:40.296Z,31.09
2023-05-19T07:25:11.382Z,30.46
2023-05-19T07:27:42.205Z,29.97
2023-05-19T07:30:12.936Z,29.26
2023-05-19T07:32:42.763Z,28.67
2023-05-19T07:35:15.176Z,28.81
2023-05-19T07:37:44.930Z,28.44
2023-05-19T07:40:15.222Z,27.34
2023-05-19T07:42:44.956Z,26.22
2023-05-19T07:45:14.947Z,26.71
2023-05-19T07:47:44.922Z,26.38
2023-05-19T07:50:17.549Z,26.48
2023-05-19T07:52:47.340Z,26.32
2023-05-19T07:55:18.086Z,26.05
2023-05-19T07:57:47.840Z,25.37
2023-05-19T08:00:18.926Z,25.14
2023-05-19T08:02:48.896Z,24.91
2023-05-19T08:05:21.270Z,24.70
2023-05-19T08:07:51.152Z,24.78
2023-05-19T08:10:21.139Z,24.28
2023-05-19T08:12:51.052Z,24.10
2023-05-19T08:15:20.869Z,24.40
2023-05-19T08:17:50.809Z,23.26
2023-05-19T08:20:24.507Z,23.72
2023-05-19T08:22:54.375Z,24.02
2023-05-19T08:25:24.356Z,24.30
2023-05-19T08:27:54.085Z,23.18
2023-05-19T08:30:24.055Z,22.86
2023-05-19T08:32:53.922Z,22.77
2023-05-19T08:35:26.594Z,22.58
2023-05-19T08:37:56.589Z,22.24
2023-05-19T08:40:27.448Z,21.94
2023-05-19T08:42:57.302Z,22.31
2023-05-19T08:45:27.622Z,23.50
2023-05-19T08:47:57.520Z,23.56
2023-05-19T08:50:34.945Z,23.91
2023-05-19T08:53:21.110Z,23.19
2023-05-19T08:56:01.166Z,22.97
2023-05-19T08:58:30.969Z,22.17
2023-05-19T09:01:01.130Z,21.85
2023-05-19T09:03:31.207Z,22.68
2023-05-19T09:06:04.168Z,22.28
2023-05-19T09:08:34.073Z,22.54
2023-05-19T09:11:03.903Z,23.41
2023-05-19T09:13:33.749Z,22.48
2023-05-19T09:16:03.891Z,22.95
2023-05-19T09:18:34.077Z,22.55
2023-05-19T09:21:07.469Z,21.73
2023-05-19T09:23:37.646Z,22.11
2023-05-19T09:26:09.138Z,23.35
2023-05-19T09:28:39.590Z,24.40
2023-05-19T09:31:11.110Z,24.20
2023-05-19T09:33:45.518Z,22.69
2023-05-19T09:36:18.375Z,22.27
2023-05-19T09:38:48.642Z,21.77
2023-05-19T09:41:18.453Z,21.42
2023-05-19T09:43:57.546Z,21.70
2023-05-19T09:46:29.185Z,20.89
2023-05-19T09:49:00.713Z,20.47
2023-05-19T09:51:33.148Z,19.36
2023-05-19T09:54:03.098Z,19.71
2023-05-19T09:56:34.924Z,19.91
2023-05-19T09:59:05.059Z,20.57
2023-05-19T10:01:36.461Z,20.66
2023-05-19T10:04:06.725Z,20.72
2023-05-19T10:06:39.232Z,20.83
2023-05-19T10:09:09.383Z,21.57
2023-05-19T10:11:39.372Z,22.40
2023-05-19T10:14:09.260Z,22.86
2023-05-19T10:16:39.365Z,23.42
2023-05-19T10:19:10.784Z,23.86
2023-05-19T10:21:43.182Z,24.46
2023-05-19T10:24:13.425Z,25.45
2023-05-19T10:26:46.093Z,26.26
2023-05-19T10:29:19.034Z,26.26
2023-05-19T10:31:49.893Z,27.43
2023-05-19T10:34:40.772Z,27.50
2023-05-19T10:37:19.143Z,27.86
2023-05-19T10:39:49.656Z,27.99
2023-05-19T10:42:23.553Z,28.90
2023-05-19T10:44:59.781Z,29.36
2023-05-19T10:47:29.715Z,29.50
2023-05-19T10:49:59.568Z,30.14
2023-05-19T10:52:33.785Z,31.18
2023-05-19T10:55:04.991Z,31.51
2023-05-19T10:57:34.888Z,32.14
2023-05-19T11:00:11.905Z,32.17
2023-05-19T11:02:44.184Z,32.84
2023-05-19T11:05:16.905Z,32.51
2023-05-19T11:08:02.350Z,32.55
2023-05-19T11:10:32.467Z,32.52
2023-05-19T11:13:02.362Z,32.49
2023-05-19T11:15:32.471Z,32.68
2023-05-19T11:18:04.570Z,32.75
2023-05-19T11:20:35.335Z,32.29
2023-05-19T11:23:12.319Z,32.62
2023-05-19T11:25:49.727Z,32.42
2023-05-19T11:28:21.090Z,32.08
2023-05-19T11:30:52.584Z,32.83
2023-05-19T11:33:27.413Z,32.88
2023-05-19T11:36:00.651Z,33.50
2023-05-19T11:38:33.594Z,33.37
2023-05-19T11:41:03.703Z,34.12
2023-05-19T11:43:33.538Z,34.16
2023-05-19T11:46:04.268Z,33.88
2023-05-19T11:48:34.118Z,34.24
2023-05-19T11:51:03.980Z,34.23
2023-05-19T11:53:36.469Z,34.26
2023-05-19T11:56:06.930Z,33.94
2023-05-19T11:58:36.779Z,34.18
2023-05-19T12:01:07.317Z,33.75
2023-05-19T12:03:37.251Z,34.48
2023-05-19T12:06:08.667Z,34.41
2023-05-19T12:08:41.504Z,34.09
2023-05-19T12:11:11.366Z,33.81
2023-05-19T12:13:41.708Z,34.01
2023-05-19T12:16:11.850Z,34.21
2023-05-19T12:18:42.230Z,34.19
2023-05-19T12:21:12.311Z,34.44
2023-05-19T12:23:45.440Z,34.96
2023-05-19T12:26:15.275Z,34.88
2023-05-19T12:28:45.311Z,35.28
2023-05-19T12:31:15.357Z,35.36
2023-05-19T12:33:45.188Z,35.50
2023-05-19T12:36:15.668Z,35.49
2023-05-19T12:38:48.646Z,35.64
2023-05-19T12:41:18.598Z,35.46
2023-05-19T12:43:48.751Z,35.14
2023-05-19T12:46:19.121Z,35.13
2023-05-19T12:48:49.863Z,34.95
2023-05-19T12:51:20.633Z,35.61
2023-05-19T12:53:53.575Z,35.46
2023-05-19T12:56:24.451Z,35.52
2023-05-19T12:58:56.952Z,35.78
2023-05-19T13:01:26.972Z,35.91
2023-05-19T13:03:56.942Z,35.80
2023-05-19T13:06:27.742Z,36.11
2023-05-19T13:09:00.170Z,35.70
2023-05-19T13:11:30.211Z,35.67
2023-05-19T13:14:00.059Z,35.41
2023-05-19T13:16:30.233Z,35.34
2023-05-19T13:19:00.057Z,35.73
2023-05-19T13:21:29.861Z,35.82
2023-05-19T13:24:04.010Z,35.68
2023-05-19T13:26:34.009Z,35.68
2023-05-19T13:29:04.354Z,35.91
2023-05-19T13:31:34.315Z,35.82
2023-05-19T13:34:04.105Z,35.58
2023-05-19T13:36:35.143Z,35.59
2023-05-19T13:39:07.567Z,35.97
2023-05-19T13:41:38.548Z,35.81
2023-05-19T13:44:08.628Z,36.46
2023-05-19T13:46:45.628Z,36.09
2023-05-19T13:49:16.633Z,36.42
2023-05-19T13:51:46.670Z,36.84
2023-05-19T13:54:21.089Z,36.07
2023-05-19T13:56:51.157Z,36.14
2023-05-19T13:59:21.640Z,36.22
2023-05-19T14:01:51.446Z,36.37
2023-05-19T14:04:22.060Z,36.26
2023-05-19T14:06:52.089Z,36.33
2023-05-19T14:09:24.513Z,36.08
2023-05-19T14:11:54.590Z,36.25
2023-05-19T14:14:25.046Z,36.37
2023-05-19T14:16:54.889Z,36.15
2023-05-19T14:19:30.381Z,36.24
2023-05-19T14:22:00.408Z,35.86
2023-05-19T14:24:33.232Z,35.70
2023-05-19T14:27:02.998Z,35.72
2023-05-19T14:29:32.845Z,35.91
2023-05-19T14:32:03.198Z,35.84
2023-05-19T14:34:33.226Z,35.91
2023-05-19T14:37:03.017Z,35.45
2023-05-19T14:39:35.383Z,35.81
2023-05-19T14:42:05.211Z,35.46
2023-05-19T14:44:35.491Z,35.54
2023-05-19T14:47:07.553Z,35.51
2023-05-19T14:49:37.498Z,35.17
2023-05-19T14:52:07.787Z,35.13
2023-05-19T14:54:40.180Z,35.07
2023-05-19T14:57:10.068Z,35.27
2023-05-19T14:59:40.127Z,35.82
2023-05-19T15:02:11.757Z,35.49
2023-05-19T15:04:41.491Z,35.55
2023-05-19T15:07:11.756Z,35.45
2023-05-19T15:09:44.108Z,35.20
2023-05-19T15:12:13.883Z,35.53
2023-05-19T15:14:43.699Z,35.41
2023-05-19T15:17:13.565Z,35.21
2023-05-19T15:19:43.506Z,35.39
2023-05-19T15:22:13.299Z,34.91
2023-05-19T15:24:45.723Z,35.13
2023-05-19T15:27:15.598Z,35.18
2023-05-19T15:29:45.596Z,34.74
2023-05-19T15:32:15.386Z,35.15
2023-05-19T15:34:45.109Z,34.91
2023-05-19T15:37:15.084Z,35.26
2023-05-19T15:39:47.403Z,35.08
2023-05-19T15:42:17.168Z,34.87
2023-05-19T15:44:47.925Z,35.10
2023-05-19T15:47:17.737Z,35.02
2023-05-19T15:49:47.896Z,34.84
2023-05-19T15:52:17.707Z,35.09
2023-05-19T15:54:50.565Z,35.10
2023-05-19T15:57:20.358Z,34.90
2023-05-19T15:59:50.113Z,34.82
2023-05-19T16:02:20.031Z,34.74
2023-05-19T16:04:49.969Z,34.82
2023-05-19T16:07:19.881Z,34.94
2023-05-19T16:09:52.791Z,34.99
2023-05-19T16:12:22.541Z,35.10
2023-05-19T16:14:52.310Z,35.19
2023-05-19T16:17:22.076Z,34.90
2023-05-19T16:19:51.829Z,35.28
2023-05-19T16:22:24.808Z,34.98
2023-05-19T16:24:57.336Z,35.17
2023-05-19T16:27:27.388Z,35.20
2023-05-19T16:29:58.117Z,35.01
2023-05-19T16:32:27.911Z,35.13
2023-05-19T16:34:57.708Z,35.41
2023-05-19T16:37:27.510Z,34.82
2023-05-19T16:39:59.947Z,35.42
2023-05-19T16:42:29.897Z,35.56
2023-05-19T16:44:59.658Z,35.23
2023-05-19T16:47:29.457Z,35.06
2023-05-19T16:49:59.304Z,35.55
2023-05-19T16:52:29.136Z,35.10
2023-05-19T16:55:01.497Z,35.19
2023-05-19T16:57:31.253Z,35.61
2023-05-19T17:00:01.060Z,35.21
2023-05-19T17:02:31.189Z,35.29
2023-05-19T17:05:01.262Z,35.87
2023-05-19T17:07:31.896Z,35.57
2023-05-19T17:10:04.224Z,35.77
2023-05-19T17:12:34.000Z,35.88
2023-05-19T17:15:03.808Z,36.00
2023-05-19T17:17:33.578Z,35.87
2023-05-19T17:20:03.507Z,35.87
2023-05-19T17:22:33.260Z,36.25
2023-05-19T17:25:05.616Z,36.14
2023-05-19T17:27:35.380Z,36.39
2023-05-19T17:30:05.341Z,36.43
2023-05-19T17:32:38.640Z,36.20
2023-05-19T17:35:10.066Z,36.35
2023-05-19T17:37:39.880Z,36.43
2023-05-19T17:40:14.179Z,36.20
2023-05-19T17:42:43.975Z,36.62
2023-05-19T17:45:14.771Z,36.37
2023-05-19T17:47:44.609Z,36.78
2023-05-19T17:50:14.395Z,36.93
2023-05-19T17:52:44.850Z,37.47
2023-05-19T17:55:18.198Z,37.09
2023-05-19T17:57:49.318Z,37.32
2023-05-19T18:00:20.129Z,36.93
2023-05-19T18:02:51.168Z,37.60
2023-05-19T18:05:22.127Z,37.37
2023-05-19T18:07:52.690Z,37.63
2023-05-19T18:10:25.493Z,37.93
2023-05-19T18:12:55.223Z,37.64
2023-05-19T18:15:25.045Z,38.12
2023-05-19T18:17:54.851Z,37.86
2023-05-19T18:20:24.649Z,38.04
2023-05-19T18:22:54.402Z,38.10
2023-05-19T18:25:27.053Z,37.94
2023-05-19T18:27:57.321Z,38.32
2023-05-19T18:30:27.185Z,38.39
2023-05-19T18:32:56.971Z,38.39
2023-05-19T18:35:26.852Z,38.85
2023-05-19T18:37:58.117Z,38.84
2023-05-19T18:40:30.612Z,38.60
2023-05-19T18:43:00.357Z,39.15
2023-05-19T18:45:30.128Z,39.29
2023-05-19T18:47:59.929Z,39.73
2023-05-19T18:50:29.750Z,39.65
2023-05-19T18:52:59.512Z,39.46
2023-05-19T18:55:31.961Z,39.97
2023-05-19T18:58:01.916Z,40.02
2023-05-19T19:00:31.960Z,40.36
2023-05-19T19:03:01.936Z,39.93
2023-05-19T19:05:32.056Z,40.32
2023-05-19T19:08:02.662Z,40.57
2023-05-19T19:10:39.189Z,40.63
2023-05-19T19:13:09.039Z,41.01
2023-05-19T19:15:39.968Z,40.96
2023-05-19T19:18:09.791Z,41.56
2023-05-19T19:20:39.624Z,41.21
2023-05-19T19:23:09.445Z,41.79
2023-05-19T19:25:41.923Z,42.07
2023-05-19T19:28:11.917Z,42.01
2023-05-19T19:30:41.669Z,42.26
2023-05-19T19:33:11.589Z,42.33
2023-05-19T19:35:41.402Z,42.73
2023-05-19T19:38:11.308Z,42.47
2023-05-19T19:40:43.683Z,43.13
2023-05-19T19:43:13.484Z,43.04
2023-05-19T19:45:43.271Z,43.02
2023-05-19T19:48:13.149Z,43.46
2023-05-19T19:50:43.006Z,43.60
2023-05-19T19:53:12.794Z,43.92
2023-05-19T19:55:45.193Z,43.62
2023-05-19T19:58:14.984Z,43.92
2023-05-19T20:00:44.732Z,44.25
2023-05-19T20:03:14.621Z,44.37
2023-05-19T20:05:44.803Z,44.34
2023-05-19T20:08:16.059Z,44.72
2023-05-19T20:10:49.151Z,44.57
2023-05-19T20:13:19.188Z,44.82
2023-05-19T20:15:49.603Z,44.85
2023-05-19T20:18:19.391Z,45.11
2023-05-19T20:20:49.234Z,45.20
2023-05-19T20:23:18.968Z,45.25
2023-05-19T20:26:09.994Z,45.80
2023-05-19T20:28:40.652Z,45.74
2023-05-19T20:31:10.642Z,46.06
2023-05-19T20:33:40.522Z,46.33
2023-05-19T20:36:11.145Z,46.59
2023-05-19T20:38:40.951Z,46.61
2023-05-19T20:41:13.506Z,46.67
2023-05-19T20:43:43.324Z,46.70
2023-05-19T20:46:13.951Z,46.63
2023-05-19T20:48:43.759Z,46.89
2023-05-19T20:51:13.553Z,47.11
2023-05-19T20:53:43.457Z,47.57
2023-05-19T20:56:15.885Z,47.45
2023-05-19T20:58:45.721Z,47.71
2023-05-19T21:01:15.590Z,47.94
2023-05-19T21:03:45.416Z,48.12
2023-05-19T21:06:15.255Z,47.79
2023-05-19T21:08:45.006Z,48.10
2023-05-19T21:11:17.421Z,48.17
2023-05-19T21:13:47.153Z,48.22
2023-05-19T21:16:16.944Z,48.67
2023-05-19T21:18:46.799Z,48.63
2023-05-19T21:21:16.577Z,48.76
2023-05-19T21:23:46.345Z,49.16
2023-05-19T21:26:18.703Z,49.02
2023-05-19T21:28:48.433Z,49.24
2023-05-19T21:31:18.382Z,49.50
2023-05-19T21:33:48.156Z,49.50
2023-05-19T21:36:18.451Z,49.55
2023-05-19T21:38:48.184Z,49.63
2023-05-19T21:41:21.374Z,49.92
2023-05-19T21:43:51.235Z,49.97
2023-05-19T21:46:21.109Z,50.34
2023-05-19T21:48:50.881Z,50.25
2023-05-19T21:51:20.660Z,50.31
2023-05-19T21:53:50.407Z,50.50
2023-05-19T21:56:22.897Z,50.29
2023-05-19T21:58:52.673Z,50.59
2023-05-19T22:01:22.443Z,50.65
2023-05-19T22:03:52.350Z,50.93
2023-05-19T22:06:22.176Z,50.86
2023-05-19T22:08:51.990Z,51.17
2023-05-19T22:11:24.330Z,51.08
2023-05-19T22:13:54.863Z,51.32
2023-05-19T22:16:24.795Z,51.40
2023-05-19T22:18:54.614Z,51.46
2023-05-19T22:21:24.421Z,51.54
2023-05-19T22:23:54.991Z,51.56
2023-05-19T22:26:27.355Z,51.77
2023-05-19T22:28:57.873Z,51.60
2023-05-19T22:31:27.620Z,52.06
2023-05-19T22:33:57.471Z,52.17
2023-05-19T22:36:27.238Z,51.96
2023-05-19T22:38:57.134Z,52.19
2023-05-19T22:41:29.561Z,52.23
2023-05-19T22:43:59.335Z,52.26
2023-05-19T22:46:29.192Z,52.46
2023-05-19T22:48:59.082Z,52.49
2023-05-19T22:51:28.961Z,52.47
2023-05-19T22:53:58.736Z,52.84
2023-05-19T22:56:31.068Z,52.71
2023-05-19T22:59:00.864Z,52.79
2023-05-19T23:01:30.762Z,52.93
2023-05-19T23:04:00.620Z,53.00
2023-05-19T23:06:30.391Z,53.15
2023-05-19T23:09:04.934Z,53.33
2023-05-19T23:11:37.424Z,53.21
2023-05-19T23:14:07.264Z,53.69
2023-05-19T23:16:37.017Z,54.02
2023-05-19T23:19:06.892Z,54.45
2023-05-19T23:21:36.688Z,54.62
2023-05-19T23:24:06.749Z,54.96
2023-05-19T23:26:39.111Z,55.28
2023-05-19T23:29:08.867Z,55.11
2023-05-19T23:31:38.647Z,55.31
2023-05-19T23:34:08.588Z,55.45
2023-05-19T23:36:38.376Z,55.61
2023-05-19T23:39:08.147Z,55.69
2023-05-19T23:41:40.763Z,55.85
2023-05-19T23:44:11.516Z,55.88
2023-05-19T23:46:41.458Z,56.12
2023-05-19T23:49:11.225Z,56.31
2023-05-19T23:51:41.081Z,56.50
2023-05-19T23:54:11.166Z,56.73
2023-05-19T23:56:43.616Z,56.95
2023-05-19T23:59:13.392Z,56.98
